createdAt,value
2023-04-01T00:01:08.130Z,100.00
2023-04-01T00:03:38.445Z,100.00
2023-04-01T00:06:06.507Z,100.00
2023-04-01T00:08:34.432Z,100.00
2023-04-01T00:11:02.301Z,100.00
2023-04-01T00:13:30.429Z,100.00
2023-04-01T00:15:59.991Z,100.00
2023-04-01T00:18:28.229Z,100.00
2023-04-01T00:20:57.501Z,100.00
2023-04-01T00:23:25.366Z,100.00
2023-04-01T00:25:53.190Z,100.00
2023-04-01T00:28:22.122Z,100.00
2023-04-01T00:30:50.056Z,100.00
2023-04-01T00:33:18.780Z,100.00
2023-04-01T00:35:46.900Z,100.00
2023-04-01T00:38:17.994Z,100.00
2023-04-01T00:40:46.927Z,100.00
2023-04-01T00:43:15.957Z,100.00
2023-04-01T00:45:44.790Z,100.00
2023-04-01T00:48:13.800Z,100.00
2023-04-01T00:50:42.823Z,100.00
2023-04-01T00:53:11.010Z,100.00
2023-04-01T00:55:43.609Z,100.00
2023-04-01T00:58:15.903Z,100.00
2023-04-01T01:00:44.202Z,100.00
2023-04-01T01:03:13.815Z,100.00
2023-04-01T01:05:53.264Z,100.00
2023-04-01T01:08:27.899Z,100.00
2023-04-01T01:10:57.292Z,100.00
2023-04-01T01:13:27.609Z,100.00
2023-04-01T01:15:57.858Z,100.00
2023-04-01T01:18:29.379Z,100.00
2023-04-01T01:21:07.840Z,100.00
2023-04-01T01:23:49.020Z,100.00
2023-04-01T01:26:37.300Z,100.00
2023-04-01T01:29:09.345Z,100.00
2023-04-01T01:31:40.018Z,100.00
2023-04-01T01:34:14.259Z,100.00
2023-04-01T01:36:46.219Z,100.00
2023-04-01T01:39:15.136Z,100.00
2023-04-01T01:41:44.730Z,100.00
2023-04-01T01:44:15.256Z,100.00
2023-04-01T01:46:44.009Z,100.00
2023-04-01T01:49:13.414Z,100.00
2023-04-01T01:51:41.319Z,100.00
2023-04-01T01:54:14.552Z,100.00
2023-04-01T01:56:43.789Z,100.00
2023-04-01T01:59:13.499Z,100.00
2023-04-01T02:01:42.907Z,100.00
2023-04-01T02:04:11.065Z,100.00
2023-04-01T02:06:41.044Z,100.00
2023-04-01T02:09:11.748Z,100.00
2023-04-01T02:11:45.089Z,100.00
2023-04-01T02:14:16.653Z,100.00
2023-04-01T02:16:51.992Z,100.00
2023-04-01T02:19:23.776Z,100.00
2023-04-01T02:21:52.802Z,100.00
2023-04-01T02:24:23.539Z,100.00
2023-04-01T02:26:52.175Z,100.00
2023-04-01T02:29:22.334Z,100.00
2023-04-01T02:31:52.396Z,100.00
2023-04-01T02:34:21.037Z,100.00
2023-04-01T02:36:50.193Z,100.00
2023-04-01T02:39:18.730Z,100.00
2023-04-01T02:41:48.033Z,100.00
2023-04-01T02:44:17.839Z,100.00
2023-04-01T02:46:46.135Z,100.00
2023-04-01T02:49:14.157Z,100.00
2023-04-01T02:51:42.018Z,100.00
2023-04-01T02:54:10.199Z,100.00
2023-04-01T02:56:38.106Z,100.00
2023-04-01T02:59:07.474Z,100.00
2023-04-01T03:01:35.627Z,100.00
2023-04-01T03:04:03.563Z,100.00
2023-04-01T03:06:31.495Z,100.00
2023-04-01T03:08:59.401Z,100.00
2023-04-01T03:11:28.026Z,100.00
2023-04-01T03:13:55.969Z,100.00
2023-04-01T03:16:25.259Z,100.00
2023-04-01T03:18:53.759Z,100.00
2023-04-01T03:21:22.935Z,100.00
2023-04-01T03:23:50.780Z,100.00
2023-04-01T03:26:19.199Z,100.00
2023-04-01T03:28:47.121Z,100.00
2023-04-01T03:31:15.815Z,100.00
2023-04-01T03:33:45.385Z,100.00
2023-04-01T03:36:14.000Z,100.00
2023-04-01T03:38:42.672Z,100.00
2023-04-01T03:41:14.768Z,100.00
2023-04-01T03:43:43.141Z,100.00
2023-04-01T03:46:11.449Z,100.00
2023-04-01T03:48:39.530Z,100.00
2023-04-01T03:51:10.780Z,100.00
2023-04-01T03:53:38.725Z,100.00
2023-04-01T03:56:08.292Z,100.00
2023-04-01T03:58:37.555Z,100.00
2023-04-01T04:01:05.830Z,100.00
2023-04-01T04:03:34.261Z,100.00
2023-04-01T04:06:02.302Z,100.00
2023-04-01T04:08:31.587Z,100.00
2023-04-01T04:10:59.461Z,100.00
2023-04-01T04:13:27.379Z,100.00
2023-04-01T04:15:55.277Z,100.00
2023-04-01T04:18:23.156Z,100.00
2023-04-01T04:20:52.239Z,100.00
2023-04-01T04:23:21.111Z,100.00
2023-04-01T04:25:57.334Z,100.00
2023-04-01T04:28:25.294Z,100.00
2023-04-01T04:30:53.400Z,100.00
2023-04-01T04:33:21.633Z,100.00
2023-04-01T04:35:49.597Z,100.00
2023-04-01T04:38:17.465Z,100.00
2023-04-01T04:40:45.693Z,100.00
2023-04-01T04:43:16.263Z,100.00
2023-04-01T04:45:44.152Z,100.00
2023-04-01T04:48:12.055Z,100.00
2023-04-01T04:50:39.984Z,100.00
2023-04-01T04:53:07.842Z,100.00
2023-04-01T04:55:35.799Z,100.00
2023-04-01T04:58:03.817Z,100.00
2023-04-01T05:00:33.126Z,100.00
2023-04-01T05:03:01.187Z,100.00
2023-04-01T05:05:29.105Z,100.00
2023-04-01T05:07:57.021Z,100.00
2023-04-01T05:10:25.153Z,100.00
2023-04-01T05:12:53.345Z,100.00
2023-04-01T05:15:21.547Z,100.00
2023-04-01T05:17:50.964Z,100.00
2023-04-01T05:20:19.244Z,100.00
2023-04-01T05:22:47.425Z,100.00
2023-04-01T05:25:15.584Z,100.00
2023-04-01T05:27:43.778Z,100.00
2023-04-01T05:30:12.162Z,100.00
2023-04-01T05:32:40.767Z,100.00
2023-04-01T05:35:10.982Z,100.00
2023-04-01T05:37:39.118Z,100.00
2023-04-01T05:40:07.766Z,100.00
2023-04-01T05:42:37.720Z,100.00
2023-04-01T05:45:06.676Z,100.00
2023-04-01T05:47:34.711Z,100.00
2023-04-01T05:50:02.781Z,100.00
2023-04-01T05:52:32.158Z,100.00
2023-04-01T05:55:01.425Z,100.00
2023-04-01T05:57:29.391Z,100.00
2023-04-01T05:59:57.312Z,100.00
2023-04-01T06:02:25.345Z,100.00
2023-04-01T06:04:56.149Z,100.00
2023-04-01T06:07:24.135Z,100.00
2023-04-01T06:09:53.412Z,100.00
2023-04-01T06:12:35.693Z,100.00
2023-04-01T06:15:12.074Z,100.00
2023-04-01T06:17:55.181Z,100.00
2023-04-01T06:20:29.294Z,100.00
2023-04-01T06:23:13.360Z,100.00
2023-04-01T06:25:54.441Z,100.00
2023-04-01T06:28:59.887Z,100.00
2023-04-01T06:31:41.859Z,100.00
2023-04-01T06:34:34.914Z,100.00
2023-04-01T06:37:18.367Z,100.00
2023-04-01T06:40:25.438Z,100.00
2023-04-01T06:43:09.994Z,100.00
2023-04-01T06:45:46.273Z,100.00
2023-04-01T06:48:39.918Z,100.00
2023-04-01T06:51:22.303Z,100.00
2023-04-01T06:53:56.955Z,100.00
2023-04-01T06:56:30.184Z,100.00
2023-04-01T06:59:02.912Z,100.00
2023-04-01T07:01:38.849Z,100.00
2023-04-01T07:04:12.246Z,100.00
2023-04-01T07:06:46.292Z,100.00
2023-04-01T07:09:18.700Z,100.00
2023-04-01T07:11:48.049Z,100.00
2023-04-01T07:14:22.489Z,100.00
2023-04-01T07:16:54.259Z,100.00
2023-04-01T07:19:28.153Z,100.00
2023-04-01T07:22:01.127Z,100.00
2023-04-01T07:24:35.359Z,100.00
2023-04-01T07:27:03.639Z,100.00
2023-04-01T07:29:33.279Z,100.00
2023-04-01T07:32:20.454Z,100.00
2023-04-01T07:34:58.434Z,100.00
2023-04-01T07:37:33.466Z,100.00
2023-04-01T07:40:15.366Z,100.00
2023-04-01T07:42:57.669Z,100.00
2023-04-01T07:45:32.773Z,100.00
2023-04-01T07:48:18.426Z,100.00
2023-04-01T07:50:53.641Z,100.00
2023-04-01T07:53:27.529Z,100.00
2023-04-01T07:56:05.790Z,100.00
2023-04-01T07:58:42.924Z,100.00
2023-04-01T08:01:20.042Z,100.00
2023-04-01T08:04:11.374Z,100.00
2023-04-01T08:06:45.767Z,100.00
2023-04-01T08:09:23.644Z,100.00
2023-04-01T08:12:06.190Z,100.00
2023-04-01T08:14:46.418Z,100.00
2023-04-01T08:17:20.878Z,100.00
2023-04-01T08:20:13.097Z,100.00
2023-04-01T08:22:44.520Z,100.00
2023-04-01T08:25:19.525Z,100.00
2023-04-01T08:27:51.107Z,100.00
2023-04-01T08:30:22.057Z,100.00
2023-04-01T08:32:58.174Z,100.00
2023-04-01T08:35:34.900Z,100.00
2023-04-01T08:38:13.086Z,100.00
2023-04-01T08:40:59.766Z,100.00
2023-04-01T08:43:49.342Z,100.00
2023-04-01T08:46:50.749Z,100.00
2023-04-01T08:49:32.639Z,100.00
2023-04-01T08:52:18.963Z,100.00
2023-04-01T08:54:59.524Z,100.00
2023-04-01T08:57:43.227Z,100.00
2023-04-01T09:00:23.335Z,100.00
2023-04-01T09:03:13.512Z,100.00
2023-04-01T09:06:07.141Z,100.00
2023-04-01T09:08:53.145Z,100.00
2023-04-01T09:11:36.079Z,100.00
2023-04-01T09:14:30.186Z,100.00
2023-04-01T09:17:21.309Z,100.00
2023-04-01T09:20:17.555Z,100.00
2023-04-01T09:23:00.583Z,100.00
2023-04-01T09:25:56.084Z,100.00
2023-04-01T09:28:31.280Z,100.00
2023-04-01T09:31:12.643Z,100.00
2023-04-01T09:34:12.154Z,100.00
2023-04-01T09:36:47.040Z,100.00
2023-04-01T09:39:44.090Z,73.59
2023-04-01T09:42:39.953Z,72.73
2023-04-01T09:45:16.362Z,72.40
2023-04-01T09:47:56.816Z,70.88
2023-04-01T09:50:48.619Z,68.01
2023-04-01T09:53:30.332Z,68.37
2023-04-01T09:56:25.351Z,67.82
2023-04-01T09:59:29.345Z,62.79
2023-04-01T10:02:28.544Z,58.53
2023-04-01T10:05:36.084Z,57.65
2023-04-01T10:08:39.495Z,55.09
2023-04-01T10:11:25.081Z,52.37
2023-04-01T10:14:31.560Z,51.86
2023-04-01T10:17:41.417Z,51.88
2023-04-01T10:20:39.990Z,53.58
2023-04-01T10:23:55.705Z,50.98
2023-04-01T10:26:42.452Z,50.03
2023-04-01T10:29:54.839Z,50.61
2023-04-01T10:32:56.990Z,51.74
2023-04-01T10:35:56.425Z,50.67
2023-04-01T10:39:24.335Z,50.94
2023-04-01T10:42:28.337Z,49.10
2023-04-01T10:45:37.898Z,50.07
2023-04-01T10:48:59.399Z,50.46
2023-04-01T10:52:01.567Z,48.50
2023-04-01T10:54:46.514Z,49.31
2023-04-01T10:57:45.019Z,48.74
2023-04-01T11:01:01.257Z,48.95
2023-04-01T11:04:07.816Z,48.11
2023-04-01T11:07:09.204Z,49.28
2023-04-01T11:10:24.278Z,48.94
2023-04-01T11:13:44.325Z,48.30
2023-04-01T11:16:45.766Z,47.99
2023-04-01T11:19:44.266Z,47.34
2023-04-01T11:22:26.996Z,47.76
2023-04-01T11:25:22.817Z,45.89
2023-04-01T11:28:19.762Z,46.37
2023-04-01T11:31:04.766Z,48.15
2023-04-01T11:33:39.824Z,47.15
2023-04-01T11:36:28.727Z,47.69
2023-04-01T11:39:10.492Z,46.47
2023-04-01T11:41:46.315Z,47.89
2023-04-01T11:44:20.274Z,46.14
2023-04-01T11:47:17.757Z,46.51
2023-04-01T11:49:59.342Z,46.55
2023-04-01T11:52:42.670Z,46.95
2023-04-01T11:55:27.216Z,45.64
2023-04-01T11:58:33.742Z,45.39
2023-04-01T12:01:22.896Z,44.90
2023-04-01T12:04:06.645Z,45.35
2023-04-01T12:06:40.495Z,45.15
2023-04-01T12:09:17.305Z,44.74
2023-04-01T12:11:54.302Z,44.36
2023-04-01T12:14:29.935Z,44.18
2023-04-01T12:17:11.787Z,43.42
2023-04-01T12:19:51.026Z,43.98
2023-04-01T12:22:35.026Z,44.42
2023-04-01T12:25:21.894Z,44.32
2023-04-01T12:28:02.938Z,43.74
2023-04-01T12:30:50.037Z,44.80
2023-04-01T12:33:43.960Z,44.21
2023-04-01T12:36:34.640Z,43.65
2023-04-01T12:39:22.848Z,42.49
2023-04-01T12:41:57.557Z,43.21
2023-04-01T12:44:50.811Z,43.07
2023-04-01T12:47:51.008Z,43.56
2023-04-01T12:50:29.199Z,43.96
2023-04-01T12:53:12.648Z,43.18
2023-04-01T12:55:42.865Z,43.24
2023-04-01T12:58:55.140Z,43.44
2023-04-01T13:01:38.850Z,41.42
2023-04-01T13:04:42.108Z,42.50
2023-04-01T13:07:29.835Z,43.31
2023-04-01T13:10:08.056Z,42.94
2023-04-01T13:12:53.642Z,43.19
2023-04-01T13:15:34.244Z,42.92
2023-04-01T13:18:16.987Z,42.91
2023-04-01T13:20:51.930Z,42.97
2023-04-01T13:23:35.476Z,43.45
2023-04-01T13:26:15.240Z,43.68
2023-04-01T13:28:50.124Z,43.43
2023-04-01T13:31:32.056Z,43.15
2023-04-01T13:34:17.717Z,42.00
2023-04-01T13:37:02.619Z,41.10
2023-04-01T13:39:44.101Z,42.13
2023-04-01T13:42:21.393Z,38.59
2023-04-01T13:44:54.630Z,36.53
2023-04-01T13:47:52.014Z,36.82
2023-04-01T13:50:35.010Z,37.27
2023-04-01T13:53:39.848Z,37.70
2023-04-01T13:56:21.895Z,36.69
2023-04-01T13:59:05.892Z,36.50
2023-04-01T14:01:41.317Z,35.23
2023-04-01T14:04:52.259Z,34.81
2023-04-01T14:07:44.554Z,36.64
2023-04-01T14:10:25.676Z,35.43
2023-04-01T14:13:02.514Z,35.94
2023-04-01T14:15:43.973Z,34.43
2023-04-01T14:18:30.155Z,34.30
2023-04-01T14:21:12.898Z,34.83
2023-04-01T14:23:54.429Z,34.02
2023-04-01T14:26:52.496Z,33.46
2023-04-01T14:29:32.219Z,33.44
2023-04-01T14:32:12.718Z,32.95
2023-04-01T14:35:01.676Z,32.37
2023-04-01T14:37:57.607Z,33.03
2023-04-01T14:40:43.111Z,31.46
2023-04-01T14:43:27.696Z,30.74
2023-04-01T14:46:28.481Z,31.34
2023-04-01T14:49:03.727Z,29.98
2023-04-01T14:51:57.538Z,29.68
2023-04-01T14:54:40.842Z,27.70
2023-04-01T14:57:14.441Z,25.04
2023-04-01T14:59:48.192Z,23.16
2023-04-01T15:02:39.510Z,23.43
2023-04-01T15:05:18.819Z,25.02
2023-04-01T15:08:12.068Z,25.66
2023-04-01T15:10:52.189Z,24.91
2023-04-01T15:13:31.760Z,24.79
2023-04-01T15:16:12.024Z,26.80
2023-04-01T15:18:52.242Z,26.49
2023-04-01T15:22:01.409Z,23.36
2023-04-01T15:24:48.343Z,21.07
2023-04-01T15:27:32.294Z,20.01
2023-04-01T15:30:31.385Z,19.92
2023-04-01T15:33:17.118Z,19.92
2023-04-01T15:35:51.684Z,19.92
2023-04-01T15:38:31.989Z,20.78
2023-04-01T15:41:10.128Z,20.70
2023-04-01T15:43:44.925Z,22.03
2023-04-01T15:46:27.013Z,22.12
2023-04-01T15:49:07.015Z,21.72
2023-04-01T15:51:47.790Z,21.44
2023-04-01T15:54:28.507Z,20.69
2023-04-01T15:57:08.250Z,22.05
2023-04-01T15:59:55.837Z,20.26
2023-04-01T16:02:33.418Z,19.29
2023-04-01T16:05:07.832Z,20.68
2023-04-01T16:08:05.434Z,20.46
2023-04-01T16:11:06.202Z,20.67
2023-04-01T16:13:47.296Z,20.34
2023-04-01T16:16:24.533Z,22.37
2023-04-01T16:19:08.710Z,23.15
2023-04-01T16:21:40.585Z,23.84
2023-04-01T16:24:19.534Z,26.13
2023-04-01T16:26:55.127Z,27.35
2023-04-01T16:29:33.034Z,28.91
2023-04-01T16:32:21.450Z,32.21
2023-04-01T16:35:01.008Z,33.85
2023-04-01T16:37:38.653Z,35.37
2023-04-01T16:40:18.807Z,35.18
2023-04-01T16:42:53.446Z,36.88
2023-04-01T16:45:35.591Z,37.55
2023-04-01T16:48:13.675Z,44.07
2023-04-01T16:50:56.116Z,43.67
2023-04-01T16:53:34.784Z,41.50
2023-04-01T16:56:11.216Z,41.48
2023-04-01T16:58:44.602Z,39.93
2023-04-01T17:01:18.666Z,41.71
2023-04-01T17:03:48.367Z,47.76
2023-04-01T17:06:29.402Z,50.28
2023-04-01T17:09:25.483Z,44.93
2023-04-01T17:12:03.802Z,43.15
2023-04-01T17:14:42.857Z,43.85
2023-04-01T17:17:29.899Z,43.13
2023-04-01T17:20:17.533Z,43.12
2023-04-01T17:22:55.507Z,43.35
2023-04-01T17:25:36.669Z,43.60
2023-04-01T17:28:18.889Z,43.65
2023-04-01T17:30:55.779Z,43.80
2023-04-01T17:33:58.991Z,44.48
2023-04-01T17:36:39.673Z,46.57
2023-04-01T17:39:25.323Z,48.50
2023-04-01T17:41:58.854Z,48.71
2023-04-01T17:44:38.452Z,49.28
2023-04-01T17:47:24.031Z,49.14
2023-04-01T17:50:02.640Z,48.48
2023-04-01T17:52:34.549Z,48.25
2023-04-01T17:55:32.679Z,48.72
2023-04-01T17:58:06.109Z,48.59
2023-04-01T18:00:53.133Z,48.40
2023-04-01T18:03:34.459Z,48.86
2023-04-01T18:06:12.185Z,49.61
2023-04-01T18:09:00.346Z,50.19
2023-04-01T18:11:41.463Z,50.30
2023-04-01T18:14:57.181Z,49.79
2023-04-01T18:17:28.195Z,49.30
2023-04-01T18:20:09.975Z,48.69
2023-04-01T18:22:45.251Z,48.79
2023-04-01T18:25:23.725Z,48.71
2023-04-01T18:27:56.027Z,48.34
2023-04-01T18:30:30.881Z,48.46
2023-04-01T18:33:04.992Z,48.80
2023-04-01T18:35:51.396Z,48.78
2023-04-01T18:38:27.255Z,49.04
2023-04-01T18:41:12.448Z,49.55
2023-04-01T18:43:46.404Z,49.79
2023-04-01T18:46:23.544Z,51.12
2023-04-01T18:49:02.364Z,52.40
2023-04-01T18:51:46.962Z,55.84
2023-04-01T18:54:20.902Z,57.43
2023-04-01T18:56:49.449Z,59.68
2023-04-01T18:59:21.391Z,62.98
2023-04-01T19:01:54.579Z,62.85
2023-04-01T19:04:27.054Z,65.53
2023-04-01T19:06:58.116Z,74.85
2023-04-01T19:09:27.610Z,81.16
2023-04-01T19:12:02.288Z,75.06
2023-04-01T19:14:35.134Z,78.34
2023-04-01T19:17:06.943Z,81.52
2023-04-01T19:19:42.778Z,82.78
2023-04-01T19:22:25.489Z,84.40
2023-04-01T19:25:05.162Z,90.40
2023-04-01T19:27:37.656Z,92.53
2023-04-01T19:30:20.366Z,96.60
2023-04-01T19:32:52.153Z,92.50
2023-04-01T19:35:26.464Z,95.24
2023-04-01T19:37:58.742Z,93.35
2023-04-01T19:40:45.413Z,92.51
2023-04-01T19:43:21.141Z,93.49
2023-04-01T19:45:52.019Z,95.96
2023-04-01T19:48:29.639Z,98.44
2023-04-01T19:51:00.256Z,99.12
2023-04-01T19:53:32.825Z,96.15
2023-04-01T19:56:04.181Z,97.84
2023-04-01T19:58:35.424Z,98.55
2023-04-01T20:01:05.958Z,95.23
2023-04-01T20:03:38.700Z,97.14
2023-04-01T20:06:13.186Z,97.49
2023-04-01T20:08:45.941Z,95.07
2023-04-01T20:11:20.730Z,88.85
2023-04-01T20:13:54.647Z,90.32
2023-04-01T20:16:23.605Z,91.88
2023-04-01T20:18:54.697Z,96.64
2023-04-01T20:21:29.410Z,98.96
2023-04-01T20:24:01.120Z,100.00
2023-04-01T20:26:31.638Z,96.37
2023-04-01T20:29:23.262Z,94.33
2023-04-01T20:32:13.883Z,93.96
2023-04-01T20:35:01.166Z,93.74
2023-04-01T20:37:35.939Z,90.75
2023-04-01T20:40:18.628Z,94.88
2023-04-01T20:43:01.238Z,96.34
2023-04-01T20:45:34.710Z,94.24
2023-04-01T20:48:12.864Z,95.66
2023-04-01T20:50:44.157Z,95.09
2023-04-01T20:53:14.419Z,92.18
2023-04-01T20:55:58.852Z,95.20
2023-04-01T20:58:31.756Z,89.73
2023-04-01T21:01:07.234Z,87.36
2023-04-01T21:03:43.110Z,86.21
2023-04-01T21:06:23.395Z,83.54
2023-04-01T21:08:56.823Z,82.50
2023-04-01T21:11:30.376Z,81.28
2023-04-01T21:14:13.489Z,81.39
2023-04-01T21:16:49.279Z,78.46
2023-04-01T21:19:35.334Z,77.49
2023-04-01T21:22:22.146Z,76.50
2023-04-01T21:25:23.610Z,75.71
2023-04-01T21:28:08.358Z,74.53
2023-04-01T21:30:51.520Z,74.46
2023-04-01T21:33:43.767Z,74.44
2023-04-01T21:36:26.141Z,74.79
2023-04-01T21:39:07.649Z,74.69
2023-04-01T21:42:04.849Z,74.80
2023-04-01T21:44:45.353Z,74.56
2023-04-01T21:47:47.047Z,74.15
2023-04-01T21:50:44.684Z,72.33
2023-04-01T21:53:33.455Z,73.15
2023-04-01T21:56:31.701Z,73.49
2023-04-01T21:59:29.593Z,74.14
2023-04-01T22:02:36.055Z,72.77
2023-04-01T22:05:09.648Z,72.98
2023-04-01T22:07:43.075Z,72.46
2023-04-01T22:10:21.737Z,72.94
2023-04-01T22:12:55.993Z,72.88
2023-04-01T22:15:33.480Z,73.87
2023-04-01T22:18:15.104Z,73.92
2023-04-01T22:20:50.494Z,74.70
2023-04-01T22:23:28.660Z,74.50
2023-04-01T22:26:04.276Z,77.15
2023-04-01T22:28:39.324Z,78.88
2023-04-01T22:31:12.294Z,78.92
2023-04-01T22:33:50.711Z,79.40
2023-04-01T22:36:25.997Z,80.45
2023-04-01T22:39:07.171Z,82.40
2023-04-01T22:41:50.477Z,83.25
2023-04-01T22:44:29.435Z,83.37
2023-04-01T22:47:07.888Z,83.82
2023-04-01T22:49:44.094Z,83.96
2023-04-01T22:52:20.766Z,84.02
2023-04-01T22:54:53.544Z,84.20
2023-04-01T22:57:39.304Z,84.30
2023-04-01T23:00:10.941Z,84.65
2023-04-01T23:02:42.791Z,85.27
2023-04-01T23:05:18.296Z,85.45
2023-04-01T23:07:51.199Z,84.59
2023-04-01T23:10:26.006Z,84.44
2023-04-01T23:12:57.136Z,85.89
2023-04-01T23:15:25.691Z,86.72
2023-04-01T23:18:08.255Z,86.83
2023-04-01T23:20:56.305Z,86.96
2023-04-01T23:23:36.671Z,86.81
2023-04-01T23:26:10.653Z,86.18
2023-04-01T23:28:48.551Z,87.50
2023-04-01T23:31:39.099Z,88.70
2023-04-01T23:34:30.566Z,89.09
2023-04-01T23:37:04.279Z,90.02
2023-04-01T23:39:36.827Z,89.85
2023-04-01T23:42:08.063Z,90.11
2023-04-01T23:44:38.405Z,91.08
2023-04-01T23:47:10.220Z,91.50
2023-04-01T23:49:42.016Z,91.35
2023-04-01T23:52:19.586Z,91.80
2023-04-01T23:54:53.795Z,91.83
2023-04-01T23:57:26.508Z,93.32
